Apple Creek, OH

1:12 AM EST on November 29, 2014 (GMT -0500)
Wayne County | Change Station
CLOSE
Current Station
Airport
Location: Wooster,
Elevation: 1135 ft
Nearby Weather Stations

Elev 1135 ft 40.87 °N, 81.89 °W | Updated 16 minutes ago

Overcast
Overcast
28 °F
Feels Like 19 °F
N
9
Wind Variable Wind from South

Today
High -- | Low -- °F
--% Chance of Precip.
Yesterday
High -- | Low -- °F
Precip. -- in
7:29 AM 5:01 PM
Waxing Crescent, 48% visible
Pressure 30.16 in
Visibility 10.0 miles
Clouds Scattered Clouds 7000 ft
Overcast 9000 ft
Windchill 19 °F
Dew Point 20 °F
Humidity 72%
Rainfall 0.00 in
Snow Depth Not available.
UV 0 out of 12
Pollen .10 out of 12
Air Quality Not available.
Flu Activity Not available.
METAR KBJJ 290556Z AUTO 18008KT 10SM SCT070 OVC090 M02/M07 A3011 RMK AO2 SLP211 60000 T10221067 11022 21039 58009 TSNO

More Conditions Fewer Conditions

Pressure 30.16 in
Visibility 10.0 miles
Clouds Scattered Clouds 7000 ft
Overcast 9000 ft
Windchill 19 °F
Dew Point 20 °F
Humidity 72%
Rainfall 0.00 in
Snow Depth Not available.
UV 0 out of 12
Pollen .10 out of 12
Air Quality Not available.
Flu Activity Not available.
METAR KBJJ 290556Z AUTO 18008KT 10SM SCT070 OVC090 M02/M07 A3011 RMK AO2 SLP211 60000 T10221067 11022 21039 58009 TSNO

More Conditions Fewer Conditions

10-Day Weather Forecast

Almanac

Astronomy

Nov. 29, 2014 Rise Set
Actual Time
Civil Twilight
Nautical Twilight
Astronomical Twilight
Moon
Length of Visible Light
Length of Day
Tomorrow will be .
, % of the Moon is Illuminated

Today's Extremes

State Highs State Lows

Community

WunderPhotos

Upload Photos

1,774,426 photos uploaded!

WunderBlogs® & News

Nearby

Air Quality

  Air Quality AQ Index Pollutant
Not available.

Snow Depth

Station Depth Elevation

Earthquake Activity

City Distance Mag. Time & Date
Minimum magnitude displayed is 2.5.

Coastal Water Temperatures

Place Temperature

Nearby Weather Stations